sensor_id;sensor_type;location;lat;lon;timestamp;P1;durP1;ratioP1;P2;durP2;ratioP2
5199;SDS011;2619;47.868;11.892;2023-03-01T00:02:00;35.00;;;17.97;;
5199;SDS011;2619;47.868;11.892;2023-03-01T00:04:26;32.07;;;17.37;;
5199;SDS011;2619;47.868;11.892;2023-03-01T00:06:52;30.63;;;17.50;;
5199;SDS011;2619;47.868;11.892;2023-03-01T00:09:18;30.13;;;15.20;;
5199;SDS011;2619;47.868;11.892;2023-03-01T00:11:44;30.90;;;18.50;;
5199;SDS011;2619;47.868;11.892;2023-03-01T00:14:10;30.40;;;18.20;;
5199;SDS011;2619;47.868;11.892;2023-03-01T00:16:37;32.63;;;19.20;;
5199;SDS011;2619;47.868;11.892;2023-03-01T00:19:04;35.90;;;18.40;;
5199;SDS011;2619;47.868;11.892;2023-03-01T00:21:31;33.27;;;18.70;;
5199;SDS011;2619;47.868;11.892;2023-03-01T00:23:58;26.67;;;16.97;;
5199;SDS011;2619;47.868;11.892;2023-03-01T00:26:24;32.50;;;19.40;;
5199;SDS011;2619;47.868;11.892;2023-03-01T00:28:50;31.63;;;19.87;;
5199;SDS011;2619;47.868;11.892;2023-03-01T00:31:17;28.50;;;16.87;;
5199;SDS011;2619;47.868;11.892;2023-03-01T00:33:45;36.60;;;18.77;;
5199;SDS011;2619;47.868;11.892;2023-03-01T00:36:12;36.60;;;20.10;;
5199;SDS011;2619;47.868;11.892;2023-03-01T00:38:40;34.63;;;18.40;;
5199;SDS011;2619;47.868;11.892;2023-03-01T00:41:10;31.97;;;18.60;;
5199;SDS011;2619;47.868;11.892;2023-03-01T00:43:41;39.57;;;20.03;;
5199;SDS011;2619;47.868;11.892;2023-03-01T00:46:08;34.77;;;19.33;;
5199;SDS011;2619;47.868;11.892;2023-03-01T00:48:36;33.40;;;18.60;;
5199;SDS011;2619;47.868;11.892;2023-03-01T00:51:05;32.43;;;18.20;;
5199;SDS011;2619;47.868;11.892;2023-03-01T00:53:31;37.93;;;19.53;;
5199;SDS011;2619;47.868;11.892;2023-03-01T00:55:57;41.93;;;21.80;;
5199;SDS011;2619;47.868;11.892;2023-03-01T00:58:23;34.50;;;19.90;;
5199;SDS011;2619;47.868;11.892;2023-03-01T01:00:49;37.57;;;21.00;;
5199;SDS011;2619;47.868;11.892;2023-03-01T01:03:15;41.30;;;22.70;;
5199;SDS011;2619;47.868;11.892;2023-03-01T01:05:40;33.80;;;18.27;;
5199;SDS011;2619;47.868;11.892;2023-03-01T01:08:06;34.57;;;21.03;;
5199;SDS011;2619;47.868;11.892;2023-03-01T01:10:33;30.67;;;19.10;;
5199;SDS011;2619;47.868;11.892;2023-03-01T01:12:59;33.50;;;20.00;;
5199;SDS011;2619;47.868;11.892;2023-03-01T01:15:25;42.40;;;22.63;;
5199;SDS011;2619;47.868;11.892;2023-03-01T01:17:51;39.90;;;21.20;;
5199;SDS011;2619;47.868;11.892;2023-03-01T01:20:16;33.43;;;18.43;;
5199;SDS011;2619;47.868;11.892;2023-03-01T01:22:42;33.47;;;19.80;;
5199;SDS011;2619;47.868;11.892;2023-03-01T01:25:08;31.40;;;19.33;;
5199;SDS011;2619;47.868;11.892;2023-03-01T01:27:33;33.80;;;19.30;;
5199;SDS011;2619;47.868;11.892;2023-03-01T01:29:59;36.23;;;19.40;;
5199;SDS011;2619;47.868;11.892;2023-03-01T01:32:25;33.47;;;20.30;;
5199;SDS011;2619;47.868;11.892;2023-03-01T01:34:50;36.80;;;19.90;;
5199;SDS011;2619;47.868;11.892;2023-03-01T01:37:16;29.47;;;17.10;;
5199;SDS011;2619;47.868;11.892;2023-03-01T01:39:41;28.90;;;18.23;;
5199;SDS011;2619;47.868;11.892;2023-03-01T01:42:17;29.53;;;17.40;;
5199;SDS011;2619;47.868;11.892;2023-03-01T01:44:46;27.80;;;15.77;;
5199;SDS011;2619;47.868;11.892;2023-03-01T01:47:14;30.07;;;17.80;;
5199;SDS011;2619;47.868;11.892;2023-03-01T01:49:49;27.63;;;17.30;;
5199;SDS011;2619;47.868;11.892;2023-03-01T01:57:57;25.87;;;15.13;;
5199;SDS011;2619;47.868;11.892;2023-03-01T02:00:27;29.60;;;15.97;;
5199;SDS011;2619;47.868;11.892;2023-03-01T02:02:55;30.20;;;17.93;;
5199;SDS011;2619;47.868;11.892;2023-03-01T02:05:26;23.90;;;15.03;;
5199;SDS011;2619;47.868;11.892;2023-03-01T02:07:58;32.70;;;18.30;;
5199;SDS011;2619;47.868;11.892;2023-03-01T02:10:24;29.50;;;16.53;;
5199;SDS011;2619;47.868;11.892;2023-03-01T02:12:50;31.73;;;15.67;;
5199;SDS011;2619;47.868;11.892;2023-03-01T02:15:17;32.87;;;19.07;;
5199;SDS011;2619;47.868;11.892;2023-03-01T02:17:42;25.40;;;15.70;;
5199;SDS011;2619;47.868;11.892;2023-03-01T02:22:55;28.20;;;16.47;;
5199;SDS011;2619;47.868;11.892;2023-03-01T02:28:08;27.50;;;16.57;;
5199;SDS011;2619;47.868;11.892;2023-03-01T02:30:36;29.70;;;15.90;;
5199;SDS011;2619;47.868;11.892;2023-03-01T02:33:02;27.20;;;15.30;;
5199;SDS011;2619;47.868;11.892;2023-03-01T02:35:30;29.60;;;16.13;;
5199;SDS011;2619;47.868;11.892;2023-03-01T02:37:59;36.10;;;16.73;;
5199;SDS011;2619;47.868;11.892;2023-03-01T02:40:27;30.90;;;18.43;;
5199;SDS011;2619;47.868;11.892;2023-03-01T02:42:54;27.07;;;16.23;;
5199;SDS011;2619;47.868;11.892;2023-03-01T02:45:23;27.87;;;16.33;;
5199;SDS011;2619;47.868;11.892;2023-03-01T02:47:50;23.90;;;15.27;;
5199;SDS011;2619;47.868;11.892;2023-03-01T02:50:25;26.60;;;16.00;;
5199;SDS011;2619;47.868;11.892;2023-03-01T02:53:16;26.37;;;14.70;;
5199;SDS011;2619;47.868;11.892;2023-03-01T02:55:44;31.33;;;18.03;;
5199;SDS011;2619;47.868;11.892;2023-03-01T02:58:10;29.23;;;15.10;;
5199;SDS011;2619;47.868;11.892;2023-03-01T03:00:38;26.23;;;16.30;;
5199;SDS011;2619;47.868;11.892;2023-03-01T03:03:15;26.97;;;16.10;;
5199;SDS011;2619;47.868;11.892;2023-03-01T03:05:43;28.37;;;17.00;;
5199;SDS011;2619;47.868;11.892;2023-03-01T03:08:10;30.73;;;17.80;;
5199;SDS011;2619;47.868;11.892;2023-03-01T03:10:38;31.27;;;18.03;;
5199;SDS011;2619;47.868;11.892;2023-03-01T03:13:14;31.53;;;17.17;;
5199;SDS011;2619;47.868;11.892;2023-03-01T03:15:40;34.93;;;17.07;;
5199;SDS011;2619;47.868;11.892;2023-03-01T03:18:08;29.17;;;16.57;;
5199;SDS011;2619;47.868;11.892;2023-03-01T03:20:36;27.77;;;17.10;;
5199;SDS011;2619;47.868;11.892;2023-03-01T03:23:04;25.43;;;14.93;;
5199;SDS011;2619;47.868;11.892;2023-03-01T03:25:30;26.77;;;14.10;;
5199;SDS011;2619;47.868;11.892;2023-03-01T03:27:56;25.47;;;16.63;;
5199;SDS011;2619;47.868;11.892;2023-03-01T03:30:26;24.47;;;15.27;;
5199;SDS011;2619;47.868;11.892;2023-03-01T03:32:54;24.47;;;14.23;;
5199;SDS011;2619;47.868;11.892;2023-03-01T03:35:25;27.03;;;17.37;;
5199;SDS011;2619;47.868;11.892;2023-03-01T03:37:55;26.17;;;15.70;;
5199;SDS011;2619;47.868;11.892;2023-03-01T03:40:40;25.93;;;15.20;;
5199;SDS011;2619;47.868;11.892;2023-03-01T03:43:08;26.13;;;16.27;;
5199;SDS011;2619;47.868;11.892;2023-03-01T03:45:36;26.23;;;14.40;;
5199;SDS011;2619;47.868;11.892;2023-03-01T03:48:03;24.67;;;14.73;;
5199;SDS011;2619;47.868;11.892;2023-03-01T03:50:29;33.43;;;16.90;;
5199;SDS011;2619;47.868;11.892;2023-03-01T03:52:55;25.33;;;14.90;;
5199;SDS011;2619;47.868;11.892;2023-03-01T03:55:21;31.43;;;16.90;;
5199;SDS011;2619;47.868;11.892;2023-03-01T03:57:47;28.43;;;15.60;;
5199;SDS011;2619;47.868;11.892;2023-03-01T04:00:20;27.23;;;15.63;;
5199;SDS011;2619;47.868;11.892;2023-03-01T04:02:48;31.00;;;16.07;;
5199;SDS011;2619;47.868;11.892;2023-03-01T04:05:14;31.03;;;17.17;;
5199;SDS011;2619;47.868;11.892;2023-03-01T04:07:42;26.03;;;15.40;;
5199;SDS011;2619;47.868;11.892;2023-03-01T04:10:10;25.93;;;15.70;;
5199;SDS011;2619;47.868;11.892;2023-03-01T04:12:38;22.87;;;15.23;;
5199;SDS011;2619;47.868;11.892;2023-03-01T04:15:04;27.50;;;15.97;;
5199;SDS011;2619;47.868;11.892;2023-03-01T04:17:41;26.10;;;15.23;;
5199;SDS011;2619;47.868;11.892;2023-03-01T04:20:09;29.07;;;15.47;;
5199;SDS011;2619;47.868;11.892;2023-03-01T04:22:37;26.10;;;15.63;;
5199;SDS011;2619;47.868;11.892;2023-03-01T04:25:04;25.73;;;13.83;;
5199;SDS011;2619;47.868;11.892;2023-03-01T04:27:32;27.33;;;15.77;;
5199;SDS011;2619;47.868;11.892;2023-03-01T04:29:58;29.10;;;15.90;;
5199;SDS011;2619;47.868;11.892;2023-03-01T04:32:24;23.90;;;14.80;;
5199;SDS011;2619;47.868;11.892;2023-03-01T04:34:50;28.40;;;16.87;;
5199;SDS011;2619;47.868;11.892;2023-03-01T04:37:15;26.10;;;14.87;;
5199;SDS011;2619;47.868;11.892;2023-03-01T04:39:41;27.40;;;15.87;;
5199;SDS011;2619;47.868;11.892;2023-03-01T04:42:11;25.97;;;14.40;;
5199;SDS011;2619;47.868;11.892;2023-03-01T04:44:37;23.97;;;15.17;;
5199;SDS011;2619;47.868;11.892;2023-03-01T04:47:02;27.83;;;14.93;;
5199;SDS011;2619;47.868;11.892;2023-03-01T04:49:28;25.50;;;15.03;;
5199;SDS011;2619;47.868;11.892;2023-03-01T04:51:54;29.60;;;15.90;;
5199;SDS011;2619;47.868;11.892;2023-03-01T04:54:19;24.77;;;14.07;;
5199;SDS011;2619;47.868;11.892;2023-03-01T04:56:45;30.50;;;15.20;;
5199;SDS011;2619;47.868;11.892;2023-03-01T04:59:11;29.10;;;16.40;;
5199;SDS011;2619;47.868;11.892;2023-03-01T05:01:37;26.53;;;15.77;;
5199;SDS011;2619;47.868;11.892;2023-03-01T05:04:03;23.53;;;14.87;;
5199;SDS011;2619;47.868;11.892;2023-03-01T05:06:30;25.77;;;14.93;;
5199;SDS011;2619;47.868;11.892;2023-03-01T05:08:56;29.77;;;16.83;;
5199;SDS011;2619;47.868;11.892;2023-03-01T05:11:22;30.10;;;16.30;;
5199;SDS011;2619;47.868;11.892;2023-03-01T05:13:47;27.13;;;15.57;;
5199;SDS011;2619;47.868;11.892;2023-03-01T05:16:15;25.97;;;15.10;;
5199;SDS011;2619;47.868;11.892;2023-03-01T05:18:41;25.27;;;15.27;;
5199;SDS011;2619;47.868;11.892;2023-03-01T05:21:09;22.57;;;14.37;;
5199;SDS011;2619;47.868;11.892;2023-03-01T05:23:37;29.80;;;16.10;;
5199;SDS011;2619;47.868;11.892;2023-03-01T05:26:03;29.27;;;16.80;;
5199;SDS011;2619;47.868;11.892;2023-03-01T05:28:30;27.43;;;15.40;;
5199;SDS011;2619;47.868;11.892;2023-03-01T05:30:57;35.50;;;17.27;;
5199;SDS011;2619;47.868;11.892;2023-03-01T05:33:23;26.00;;;15.00;;
5199;SDS011;2619;47.868;11.892;2023-03-01T05:35:50;31.50;;;17.87;;
5199;SDS011;2619;47.868;11.892;2023-03-01T05:38:16;27.53;;;15.87;;
5199;SDS011;2619;47.868;11.892;2023-03-01T05:40:43;26.70;;;14.67;;
5199;SDS011;2619;47.868;11.892;2023-03-01T05:43:09;28.27;;;15.83;;
5199;SDS011;2619;47.868;11.892;2023-03-01T05:45:36;24.70;;;14.80;;
5199;SDS011;2619;47.868;11.892;2023-03-01T05:48:03;26.20;;;14.67;;
5199;SDS011;2619;47.868;11.892;2023-03-01T05:50:32;24.87;;;15.07;;
5199;SDS011;2619;47.868;11.892;2023-03-01T05:53:03;25.53;;;16.00;;
5199;SDS011;2619;47.868;11.892;2023-03-01T05:55:35;33.97;;;15.63;;
5199;SDS011;2619;47.868;11.892;2023-03-01T05:58:02;22.80;;;13.80;;
5199;SDS011;2619;47.868;11.892;2023-03-01T06:00:34;33.63;;;15.70;;
5199;SDS011;2619;47.868;11.892;2023-03-01T06:03:00;25.43;;;15.97;;
5199;SDS011;2619;47.868;11.892;2023-03-01T06:05:26;27.70;;;15.90;;
5199;SDS011;2619;47.868;11.892;2023-03-01T06:07:52;24.07;;;14.60;;
5199;SDS011;2619;47.868;11.892;2023-03-01T06:10:19;35.07;;;17.73;;
5199;SDS011;2619;47.868;11.892;2023-03-01T06:12:46;29.70;;;14.80;;
5199;SDS011;2619;47.868;11.892;2023-03-01T06:15:13;26.10;;;15.27;;
5199;SDS011;2619;47.868;11.892;2023-03-01T06:17:41;25.33;;;14.80;;
5199;SDS011;2619;47.868;11.892;2023-03-01T06:20:13;22.77;;;14.57;;
5199;SDS011;2619;47.868;11.892;2023-03-01T06:22:44;24.80;;;13.10;;
5199;SDS011;2619;47.868;11.892;2023-03-01T06:25:10;29.37;;;15.30;;
5199;SDS011;2619;47.868;11.892;2023-03-01T06:27:38;27.50;;;15.20;;
5199;SDS011;2619;47.868;11.892;2023-03-01T06:30:05;27.07;;;15.53;;
5199;SDS011;2619;47.868;11.892;2023-03-01T06:32:32;25.40;;;15.93;;
5199;SDS011;2619;47.868;11.892;2023-03-01T06:34:57;27.30;;;14.90;;
5199;SDS011;2619;47.868;11.892;2023-03-01T06:37:23;25.23;;;14.90;;
5199;SDS011;2619;47.868;11.892;2023-03-01T06:39:50;29.40;;;15.93;;
5199;SDS011;2619;47.868;11.892;2023-03-01T06:42:15;29.00;;;16.00;;
5199;SDS011;2619;47.868;11.892;2023-03-01T06:44:41;33.33;;;15.17;;
5199;SDS011;2619;47.868;11.892;2023-03-01T06:47:07;29.53;;;17.17;;
5199;SDS011;2619;47.868;11.892;2023-03-01T06:49:32;35.60;;;17.20;;
5199;SDS011;2619;47.868;11.892;2023-03-01T06:51:58;30.87;;;15.87;;
5199;SDS011;2619;47.868;11.892;2023-03-01T06:54:23;24.83;;;14.07;;
5199;SDS011;2619;47.868;11.892;2023-03-01T06:56:49;27.87;;;15.57;;
5199;SDS011;2619;47.868;11.892;2023-03-01T06:59:15;28.90;;;16.33;;
5199;SDS011;2619;47.868;11.892;2023-03-01T07:01:41;26.73;;;15.27;;
5199;SDS011;2619;47.868;11.892;2023-03-01T07:04:08;26.37;;;14.13;;
5199;SDS011;2619;47.868;11.892;2023-03-01T07:06:34;30.20;;;16.87;;
5199;SDS011;2619;47.868;11.892;2023-03-01T07:08:59;28.03;;;15.33;;
5199;SDS011;2619;47.868;11.892;2023-03-01T07:11:25;26.83;;;14.87;;
5199;SDS011;2619;47.868;11.892;2023-03-01T07:13:51;27.50;;;16.20;;
5199;SDS011;2619;47.868;11.892;2023-03-01T07:16:16;26.47;;;16.00;;
5199;SDS011;2619;47.868;11.892;2023-03-01T07:18:42;28.53;;;14.90;;
5199;SDS011;2619;47.868;11.892;2023-03-01T07:21:09;27.23;;;15.30;;
5199;SDS011;2619;47.868;11.892;2023-03-01T07:23:36;31.07;;;14.97;;
5199;SDS011;2619;47.868;11.892;2023-03-01T07:26:02;25.93;;;14.33;;
5199;SDS011;2619;47.868;11.892;2023-03-01T07:28:28;25.03;;;14.63;;
5199;SDS011;2619;47.868;11.892;2023-03-01T07:30:54;27.30;;;15.30;;
5199;SDS011;2619;47.868;11.892;2023-03-01T07:33:20;27.90;;;15.40;;
5199;SDS011;2619;47.868;11.892;2023-03-01T07:35:46;25.83;;;15.00;;
5199;SDS011;2619;47.868;11.892;2023-03-01T07:38:11;26.67;;;13.67;;
5199;SDS011;2619;47.868;11.892;2023-03-01T07:40:37;26.23;;;15.87;;
5199;SDS011;2619;47.868;11.892;2023-03-01T07:43:02;25.10;;;14.27;;
5199;SDS011;2619;47.868;11.892;2023-03-01T07:45:28;21.53;;;13.63;;
5199;SDS011;2619;47.868;11.892;2023-03-01T07:47:54;29.10;;;16.07;;
5199;SDS011;2619;47.868;11.892;2023-03-01T07:50:21;25.43;;;15.50;;
5199;SDS011;2619;47.868;11.892;2023-03-01T07:52:48;28.50;;;15.00;;
5199;SDS011;2619;47.868;11.892;2023-03-01T07:55:15;31.60;;;15.23;;
5199;SDS011;2619;47.868;11.892;2023-03-01T07:57:41;27.83;;;15.20;;
5199;SDS011;2619;47.868;11.892;2023-03-01T08:00:08;24.33;;;14.30;;
5199;SDS011;2619;47.868;11.892;2023-03-01T08:02:36;27.80;;;15.53;;
5199;SDS011;2619;47.868;11.892;2023-03-01T08:05:01;27.57;;;15.50;;
5199;SDS011;2619;47.868;11.892;2023-03-01T08:07:27;25.00;;;14.47;;
5199;SDS011;2619;47.868;11.892;2023-03-01T08:09:53;24.73;;;14.80;;
5199;SDS011;2619;47.868;11.892;2023-03-01T08:12:18;25.87;;;14.67;;
5199;SDS011;2619;47.868;11.892;2023-03-01T08:14:44;31.13;;;15.60;;
5199;SDS011;2619;47.868;11.892;2023-03-01T08:17:10;27.77;;;15.97;;
5199;SDS011;2619;47.868;11.892;2023-03-01T08:19:38;25.73;;;14.50;;
5199;SDS011;2619;47.868;11.892;2023-03-01T08:22:03;25.50;;;14.97;;
5199;SDS011;2619;47.868;11.892;2023-03-01T08:24:29;22.60;;;13.33;;
5199;SDS011;2619;47.868;11.892;2023-03-01T08:26:55;28.20;;;16.70;;
5199;SDS011;2619;47.868;11.892;2023-03-01T08:29:21;28.20;;;16.37;;
5199;SDS011;2619;47.868;11.892;2023-03-01T08:31:47;32.53;;;15.90;;
5199;SDS011;2619;47.868;11.892;2023-03-01T08:34:14;24.77;;;14.53;;
5199;SDS011;2619;47.868;11.892;2023-03-01T08:36:42;30.37;;;16.50;;
5199;SDS011;2619;47.868;11.892;2023-03-01T08:39:10;27.53;;;15.40;;
5199;SDS011;2619;47.868;11.892;2023-03-01T08:41:37;27.40;;;15.20;;
5199;SDS011;2619;47.868;11.892;2023-03-01T08:44:04;26.17;;;13.97;;
5199;SDS011;2619;47.868;11.892;2023-03-01T08:46:31;23.27;;;14.03;;
5199;SDS011;2619;47.868;11.892;2023-03-01T08:48:59;24.27;;;15.70;;
5199;SDS011;2619;47.868;11.892;2023-03-01T08:51:25;23.40;;;14.77;;
5199;SDS011;2619;47.868;11.892;2023-03-01T08:53:51;26.53;;;15.90;;
5199;SDS011;2619;47.868;11.892;2023-03-01T08:56:18;29.37;;;15.57;;
5199;SDS011;2619;47.868;11.892;2023-03-01T08:58:45;29.10;;;15.77;;
5199;SDS011;2619;47.868;11.892;2023-03-01T09:01:12;25.83;;;15.40;;
5199;SDS011;2619;47.868;11.892;2023-03-01T09:03:39;26.50;;;15.17;;
5199;SDS011;2619;47.868;11.892;2023-03-01T09:06:05;26.80;;;15.20;;
5199;SDS011;2619;47.868;11.892;2023-03-01T09:08:39;26.03;;;15.80;;
5199;SDS011;2619;47.868;11.892;2023-03-01T09:11:08;26.00;;;15.90;;
5199;SDS011;2619;47.868;11.892;2023-03-01T09:13:36;29.93;;;15.47;;
5199;SDS011;2619;47.868;11.892;2023-03-01T09:16:03;26.33;;;15.60;;
5199;SDS011;2619;47.868;11.892;2023-03-01T09:18:30;25.60;;;15.87;;
5199;SDS011;2619;47.868;11.892;2023-03-01T09:21:12;27.50;;;16.47;;
5199;SDS011;2619;47.868;11.892;2023-03-01T09:23:40;28.20;;;16.00;;
5199;SDS011;2619;47.868;11.892;2023-03-01T09:26:11;28.43;;;17.40;;
5199;SDS011;2619;47.868;11.892;2023-03-01T09:28:38;25.07;;;15.17;;
5199;SDS011;2619;47.868;11.892;2023-03-01T09:31:06;27.20;;;16.00;;
5199;SDS011;2619;47.868;11.892;2023-03-01T09:33:31;25.60;;;15.73;;
5199;SDS011;2619;47.868;11.892;2023-03-01T09:35:58;21.00;;;13.90;;
5199;SDS011;2619;47.868;11.892;2023-03-01T09:38:25;27.27;;;16.80;;
5199;SDS011;2619;47.868;11.892;2023-03-01T09:40:51;25.80;;;16.47;;
5199;SDS011;2619;47.868;11.892;2023-03-01T09:45:53;27.10;;;16.40;;
5199;SDS011;2619;47.868;11.892;2023-03-01T09:48:22;28.23;;;16.40;;
5199;SDS011;2619;47.868;11.892;2023-03-01T09:50:51;23.67;;;15.37;;
5199;SDS011;2619;47.868;11.892;2023-03-01T09:53:19;29.20;;;16.23;;
5199;SDS011;2619;47.868;11.892;2023-03-01T09:55:59;24.73;;;15.60;;
5199;SDS011;2619;47.868;11.892;2023-03-01T09:58:37;27.07;;;15.90;;
5199;SDS011;2619;47.868;11.892;2023-03-01T10:07:17;24.00;;;15.70;;
5199;SDS011;2619;47.868;11.892;2023-03-01T10:09:51;25.27;;;15.83;;
5199;SDS011;2619;47.868;11.892;2023-03-01T10:12:18;29.97;;;17.23;;
5199;SDS011;2619;47.868;11.892;2023-03-01T10:15:04;25.03;;;16.50;;
5199;SDS011;2619;47.868;11.892;2023-03-01T10:17:41;27.73;;;16.00;;
5199;SDS011;2619;47.868;11.892;2023-03-01T10:20:17;29.23;;;16.60;;
5199;SDS011;2619;47.868;11.892;2023-03-01T10:22:45;24.10;;;15.63;;
5199;SDS011;2619;47.868;11.892;2023-03-01T10:25:15;30.50;;;17.13;;
5199;SDS011;2619;47.868;11.892;2023-03-01T10:27:52;29.00;;;17.07;;
5199;SDS011;2619;47.868;11.892;2023-03-01T10:30:35;25.27;;;15.27;;
5199;SDS011;2619;47.868;11.892;2023-03-01T10:33:08;29.73;;;16.30;;
5199;SDS011;2619;47.868;11.892;2023-03-01T10:35:47;33.07;;;17.40;;
5199;SDS011;2619;47.868;11.892;2023-03-01T10:38:14;31.53;;;17.60;;
5199;SDS011;2619;47.868;11.892;2023-03-01T10:40:54;26.63;;;16.30;;
5199;SDS011;2619;47.868;11.892;2023-03-01T10:43:22;23.80;;;14.87;;
5199;SDS011;2619;47.868;11.892;2023-03-01T10:45:54;29.93;;;16.97;;
5199;SDS011;2619;47.868;11.892;2023-03-01T10:48:21;32.90;;;17.07;;
5199;SDS011;2619;47.868;11.892;2023-03-01T10:53:42;27.43;;;16.57;;
5199;SDS011;2619;47.868;11.892;2023-03-01T10:56:14;24.87;;;16.03;;
5199;SDS011;2619;47.868;11.892;2023-03-01T10:58:57;29.83;;;16.63;;
5199;SDS011;2619;47.868;11.892;2023-03-01T11:01:34;27.83;;;15.67;;
5199;SDS011;2619;47.868;11.892;2023-03-01T11:06:36;25.53;;;16.00;;
5199;SDS011;2619;47.868;11.892;2023-03-01T11:09:16;25.27;;;15.20;;
5199;SDS011;2619;47.868;11.892;2023-03-01T11:11:43;23.90;;;13.80;;
5199;SDS011;2619;47.868;11.892;2023-03-01T11:16:47;30.30;;;16.07;;
5199;SDS011;2619;47.868;11.892;2023-03-01T11:19:22;28.80;;;16.37;;
5199;SDS011;2619;47.868;11.892;2023-03-01T11:27:40;29.27;;;17.27;;
5199;SDS011;2619;47.868;11.892;2023-03-01T11:35:35;29.07;;;15.60;;
5199;SDS011;2619;47.868;11.892;2023-03-01T11:40:59;26.83;;;15.50;;
5199;SDS011;2619;47.868;11.892;2023-03-01T11:43:37;27.93;;;16.00;;
5199;SDS011;2619;47.868;11.892;2023-03-01T11:57:16;27.00;;;14.90;;
5199;SDS011;2619;47.868;11.892;2023-03-01T12:11:21;25.63;;;15.10;;
5199;SDS011;2619;47.868;11.892;2023-03-01T12:21:51;24.37;;;14.50;;
5199;SDS011;2619;47.868;11.892;2023-03-01T12:27:19;26.87;;;15.80;;
5199;SDS011;2619;47.868;11.892;2023-03-01T12:33:00;35.67;;;16.10;;
5199;SDS011;2619;47.868;11.892;2023-03-01T12:35:38;26.03;;;14.30;;
5199;SDS011;2619;47.868;11.892;2023-03-01T12:38:31;26.03;;;15.67;;
5199;SDS011;2619;47.868;11.892;2023-03-01T12:43:44;24.53;;;14.90;;
5199;SDS011;2619;47.868;11.892;2023-03-01T12:51:24;29.13;;;15.77;;
5199;SDS011;2619;47.868;11.892;2023-03-01T12:53:53;22.83;;;14.20;;
5199;SDS011;2619;47.868;11.892;2023-03-01T12:56:25;27.80;;;15.30;;
5199;SDS011;2619;47.868;11.892;2023-03-01T13:04:39;25.70;;;13.70;;
5199;SDS011;2619;47.868;11.892;2023-03-01T13:07:23;25.50;;;14.13;;
5199;SDS011;2619;47.868;11.892;2023-03-01T13:10:07;26.40;;;14.70;;
5199;SDS011;2619;47.868;11.892;2023-03-01T13:17:52;27.30;;;14.83;;
5199;SDS011;2619;47.868;11.892;2023-03-01T13:20:29;22.70;;;14.60;;
5199;SDS011;2619;47.868;11.892;2023-03-01T13:23:05;24.23;;;13.67;;
5199;SDS011;2619;47.868;11.892;2023-03-01T13:31:01;25.20;;;14.03;;
5199;SDS011;2619;47.868;11.892;2023-03-01T13:35:55;22.73;;;14.07;;
5199;SDS011;2619;47.868;11.892;2023-03-01T13:41:17;26.03;;;16.07;;
5199;SDS011;2619;47.868;11.892;2023-03-01T13:46:44;27.03;;;14.93;;
5199;SDS011;2619;47.868;11.892;2023-03-01T13:49:11;28.30;;;15.27;;
5199;SDS011;2619;47.868;11.892;2023-03-01T13:51:41;27.00;;;16.30;;
5199;SDS011;2619;47.868;11.892;2023-03-01T13:54:11;23.70;;;15.03;;
5199;SDS011;2619;47.868;11.892;2023-03-01T13:56:39;27.17;;;15.37;;
5199;SDS011;2619;47.868;11.892;2023-03-01T13:59:06;26.67;;;15.73;;
5199;SDS011;2619;47.868;11.892;2023-03-01T14:01:39;27.90;;;15.00;;
5199;SDS011;2619;47.868;11.892;2023-03-01T14:07:09;27.53;;;14.23;;
5199;SDS011;2619;47.868;11.892;2023-03-01T14:09:38;27.97;;;14.27;;
5199;SDS011;2619;47.868;11.892;2023-03-01T14:13:08;30.57;;;16.53;;
5199;SDS011;2619;47.868;11.892;2023-03-01T14:20:37;33.13;;;17.07;;
5199;SDS011;2619;47.868;11.892;2023-03-01T14:23:10;30.70;;;17.10;;
5199;SDS011;2619;47.868;11.892;2023-03-01T14:25:39;27.47;;;17.20;;
5199;SDS011;2619;47.868;11.892;2023-03-01T14:28:19;28.27;;;16.57;;
5199;SDS011;2619;47.868;11.892;2023-03-01T14:30:59;30.60;;;17.83;;
5199;SDS011;2619;47.868;11.892;2023-03-01T14:33:35;29.43;;;17.50;;
5199;SDS011;2619;47.868;11.892;2023-03-01T14:36:08;37.10;;;18.33;;
5199;SDS011;2619;47.868;11.892;2023-03-01T14:38:39;29.07;;;16.83;;
5199;SDS011;2619;47.868;11.892;2023-03-01T14:43:45;29.33;;;16.20;;
5199;SDS011;2619;47.868;11.892;2023-03-01T14:46:23;32.00;;;17.70;;
5199;SDS011;2619;47.868;11.892;2023-03-01T14:48:55;28.43;;;16.13;;
5199;SDS011;2619;47.868;11.892;2023-03-01T14:51:26;29.37;;;16.83;;
5199;SDS011;2619;47.868;11.892;2023-03-01T14:53:52;30.03;;;16.37;;
5199;SDS011;2619;47.868;11.892;2023-03-01T14:56:18;30.37;;;17.00;;
5199;SDS011;2619;47.868;11.892;2023-03-01T14:58:44;29.00;;;17.27;;
5199;SDS011;2619;47.868;11.892;2023-03-01T15:01:15;30.30;;;17.43;;
5199;SDS011;2619;47.868;11.892;2023-03-01T15:03:49;30.00;;;16.90;;
5199;SDS011;2619;47.868;11.892;2023-03-01T15:06:17;27.27;;;16.20;;
5199;SDS011;2619;47.868;11.892;2023-03-01T15:08:45;29.40;;;17.00;;
5199;SDS011;2619;47.868;11.892;2023-03-01T15:11:19;25.07;;;16.30;;
5199;SDS011;2619;47.868;11.892;2023-03-01T15:13:52;27.17;;;16.20;;
5199;SDS011;2619;47.868;11.892;2023-03-01T15:16:20;29.77;;;16.93;;
5199;SDS011;2619;47.868;11.892;2023-03-01T15:18:50;30.40;;;18.17;;
5199;SDS011;2619;47.868;11.892;2023-03-01T15:21:26;28.07;;;16.63;;
5199;SDS011;2619;47.868;11.892;2023-03-01T15:23:57;32.67;;;18.67;;
5199;SDS011;2619;47.868;11.892;2023-03-01T15:26:58;33.03;;;16.90;;
5199;SDS011;2619;47.868;11.892;2023-03-01T15:29:31;27.50;;;15.57;;
5199;SDS011;2619;47.868;11.892;2023-03-01T15:32:20;27.30;;;16.53;;
5199;SDS011;2619;47.868;11.892;2023-03-01T15:34:59;28.40;;;15.63;;
5199;SDS011;2619;47.868;11.892;2023-03-01T15:37:45;29.40;;;16.57;;
5199;SDS011;2619;47.868;11.892;2023-03-01T15:40:26;24.43;;;14.73;;
5199;SDS011;2619;47.868;11.892;2023-03-01T15:43:05;27.57;;;16.27;;
5199;SDS011;2619;47.868;11.892;2023-03-01T15:45:57;24.67;;;15.57;;
5199;SDS011;2619;47.868;11.892;2023-03-01T15:48:23;25.70;;;15.30;;
5199;SDS011;2619;47.868;11.892;2023-03-01T15:50:57;28.03;;;16.60;;
5199;SDS011;2619;47.868;11.892;2023-03-01T15:53:24;25.73;;;15.47;;
5199;SDS011;2619;47.868;11.892;2023-03-01T15:55:52;23.40;;;14.27;;
5199;SDS011;2619;47.868;11.892;2023-03-01T15:58:19;27.90;;;15.70;;
5199;SDS011;2619;47.868;11.892;2023-03-01T16:00:47;30.00;;;15.13;;
5199;SDS011;2619;47.868;11.892;2023-03-01T16:03:16;29.67;;;15.37;;
5199;SDS011;2619;47.868;11.892;2023-03-01T16:05:46;33.57;;;16.83;;
5199;SDS011;2619;47.868;11.892;2023-03-01T16:08:13;28.00;;;16.73;;
5199;SDS011;2619;47.868;11.892;2023-03-01T16:10:40;28.47;;;15.77;;
5199;SDS011;2619;47.868;11.892;2023-03-01T16:13:08;31.03;;;15.20;;
5199;SDS011;2619;47.868;11.892;2023-03-01T16:15:37;30.97;;;16.47;;
5199;SDS011;2619;47.868;11.892;2023-03-01T16:18:04;33.07;;;17.70;;
5199;SDS011;2619;47.868;11.892;2023-03-01T16:20:31;27.37;;;15.90;;
5199;SDS011;2619;47.868;11.892;2023-03-01T16:22:57;31.20;;;16.87;;
5199;SDS011;2619;47.868;11.892;2023-03-01T16:25:25;27.47;;;16.00;;
5199;SDS011;2619;47.868;11.892;2023-03-01T16:27:50;27.90;;;15.83;;
5199;SDS011;2619;47.868;11.892;2023-03-01T16:30:18;30.70;;;17.00;;
5199;SDS011;2619;47.868;11.892;2023-03-01T16:32:45;33.13;;;17.93;;
5199;SDS011;2619;47.868;11.892;2023-03-01T16:35:14;33.60;;;16.07;;
5199;SDS011;2619;47.868;11.892;2023-03-01T16:37:42;27.50;;;15.90;;
5199;SDS011;2619;47.868;11.892;2023-03-01T16:40:17;34.20;;;17.40;;
5199;SDS011;2619;47.868;11.892;2023-03-01T16:42:43;28.83;;;17.00;;
5199;SDS011;2619;47.868;11.892;2023-03-01T16:45:09;32.90;;;17.27;;
5199;SDS011;2619;47.868;11.892;2023-03-01T16:47:34;32.63;;;16.00;;